Time;durP1;ratioP1;P1;durP2;ratioP2;P2;SDS_P1;SDS_P2;PMS_P1;PMS_P2;Temp;Humidity;BMP_temperature;BMP_pressure;BME280_temperature;BME280_humidity;BME280_pressure;Samples;Min_cycle;Max_cycle;Signal;HPM_P1;HPM_P2
2023/01/01 00:00:59;;;;;;;696.10;500.70;;;9.40;76.10;;;;;;5054059;28;20067;-63
2023/01/01 00:03:24;;;;;;;635.20;441.58;;;9.30;76.10;;;;;;5051853;28;20131;-63
2023/01/01 00:05:50;;;;;;;682.80;479.23;;;9.30;76.20;;;;;;5044275;28;20068;-62
2023/01/01 00:08:15;;;;;;;711.90;515.53;;;9.30;76.10;;;;;;5052699;28;20034;-63
2023/01/01 00:10:41;;;;;;;714.70;515.22;;;9.30;76.20;;;;;;5057569;28;20020;-64
2023/01/01 00:13:07;;;;;;;668.33;478.38;;;9.30;76.10;;;;;;5053227;28;20082;-63
2023/01/01 00:15:32;;;;;;;662.80;466.65;;;9.30;76.20;;;;;;5057781;28;20112;-64
2023/01/01 00:17:58;;;;;;;650.78;462.33;;;9.30;76.20;;;;;;4995085;28;20368;-62
2023/01/01 00:20:24;;;;;;;644.15;452.05;;;9.20;76.20;;;;;;5041621;28;20087;-63
2023/01/01 00:22:50;;;;;;;632.75;438.25;;;9.20;76.20;;;;;;5041074;28;20305;-63
2023/01/01 00:25:17;;;;;;;603.70;416.55;;;9.20;76.20;;;;;;5053306;28;20111;-62
2023/01/01 00:27:42;;;;;;;620.08;424.77;;;9.20;76.20;;;;;;5050544;28;20448;-63
2023/01/01 00:30:09;;;;;;;588.05;398.10;;;9.20;76.20;;;;;;5048252;28;20041;-62
2023/01/01 00:32:35;;;;;;;462.70;292.88;;;9.20;76.40;;;;;;5054263;28;20062;-63
2023/01/01 00:35:01;;;;;;;475.35;306.77;;;9.20;76.60;;;;;;5042200;28;20057;-63
2023/01/01 00:37:27;;;;;;;507.90;335.05;;;9.10;76.90;;;;;;5043210;28;20117;-62
2023/01/01 00:39:53;;;;;;;476.85;312.17;;;9.20;77.10;;;;;;5055885;28;20037;-63
2023/01/01 00:42:18;;;;;;;487.17;318.17;;;9.20;77.00;;;;;;5046890;28;20055;-63
2023/01/01 00:44:44;;;;;;;440.55;292.70;;;9.20;76.80;;;;;;5049664;28;20037;-63
2023/01/01 00:47:10;;;;;;;487.83;322.70;;;9.20;76.80;;;;;;5043546;28;20037;-62
2023/01/01 00:49:35;;;;;;;498.38;325.33;;;9.20;76.80;;;;;;5047519;28;20373;-62
2023/01/01 00:52:01;;;;;;;524.55;342.30;;;9.10;76.60;;;;;;5046869;28;20124;-63
2023/01/01 00:54:27;;;;;;;512.75;341.25;;;9.10;76.50;;;;;;5050889;28;20041;-63
2023/01/01 00:56:54;;;;;;;527.63;346.02;;;9.10;76.50;;;;;;5043477;28;20068;-62
2023/01/01 00:59:20;;;;;;;517.63;340.15;;;9.10;76.40;;;;;;5046776;28;20032;-62
2023/01/01 01:01:46;;;;;;;512.15;335.48;;;9.10;76.50;;;;;;5038254;28;20026;-63
2023/01/01 01:04:12;;;;;;;514.03;343.35;;;9.10;76.30;;;;;;5027936;28;20413;-63
2023/01/01 01:06:37;;;;;;;499.00;333.25;;;9.10;76.40;;;;;;5044892;28;20092;-64
2023/01/01 01:09:03;;;;;;;451.27;293.17;;;9.10;76.50;;;;;;5039477;28;20032;-63
2023/01/01 01:11:29;;;;;;;410.88;267.73;;;9.00;76.50;;;;;;5046540;28;20029;-63
2023/01/01 01:13:56;;;;;;;396.10;259.95;;;9.00;76.50;;;;;;5043748;28;20526;-63
2023/01/01 01:16:25;;;;;;;386.17;247.45;;;9.00;76.60;;;;;;5044445;28;20487;-64
2023/01/01 01:18:52;;;;;;;358.30;220.88;;;9.00;76.60;;;;;;5044660;28;20052;-63
2023/01/01 01:21:21;;;;;;;308.02;190.38;;;9.00;76.60;;;;;;5045645;28;20055;-64
2023/01/01 01:23:48;;;;;;;314.70;191.25;;;9.00;76.60;;;;;;5045134;28;20028;-62
2023/01/01 01:26:16;;;;;;;312.58;191.35;;;9.00;76.70;;;;;;5040731;28;20033;-62
2023/01/01 01:28:43;;;;;;;233.73;136.43;;;9.00;76.70;;;;;;5037501;28;20162;-62
2023/01/01 01:31:09;;;;;;;249.30;142.85;;;9.00;76.70;;;;;;5034659;28;20491;-61
2023/01/01 01:33:35;;;;;;;222.13;122.88;;;9.00;76.80;;;;;;5047368;28;20025;-64
2023/01/01 01:36:03;;;;;;;223.10;127.15;;;9.00;76.80;;;;;;5036582;28;20033;-61
2023/01/01 01:38:28;;;;;;;223.13;128.68;;;9.00;77.00;;;;;;5045097;28;20027;-62
2023/01/01 01:40:54;;;;;;;223.25;127.35;;;9.00;77.20;;;;;;5047443;28;20068;-62
2023/01/01 01:43:23;;;;;;;229.05;131.55;;;9.00;77.20;;;;;;5051373;28;20071;-62
2023/01/01 01:45:54;;;;;;;201.13;114.90;;;9.00;77.00;;;;;;5041757;28;20064;-63
2023/01/01 01:48:21;;;;;;;246.70;143.80;;;9.00;76.90;;;;;;5043273;28;20029;-63
2023/01/01 01:50:51;;;;;;;265.30;162.90;;;9.00;76.80;;;;;;5046501;28;20020;-62
2023/01/01 01:53:26;;;;;;;311.45;206.75;;;9.00;76.60;;;;;;5040383;28;20021;-62
2023/01/01 01:56:01;;;;;;;337.92;222.05;;;9.00;76.40;;;;;;5058034;28;20002;-63
2023/01/01 01:58:29;;;;;;;364.38;216.35;;;8.90;76.10;;;;;;5064921;28;20029;-64
2023/01/01 02:00:55;;;;;;;351.08;221.25;;;8.90;75.90;;;;;;5054767;28;20032;-64
2023/01/01 02:03:25;;;;;;;404.15;224.43;;;8.90;75.90;;;;;;5046838;28;20032;-63
2023/01/01 02:05:51;;;;;;;311.10;215.40;;;8.80;75.90;;;;;;5045972;28;20559;-63
2023/01/01 02:08:19;;;;;;;361.73;222.65;;;8.80;75.90;;;;;;5047103;28;20105;-63
2023/01/01 02:10:46;;;;;;;346.50;210.02;;;8.80;76.00;;;;;;5050433;28;20017;-63
2023/01/01 02:13:12;;;;;;;358.65;199.27;;;8.70;75.90;;;;;;5035545;28;20033;-63
2023/01/01 02:15:52;;;;;;;360.27;196.45;;;8.70;76.00;;;;;;5050459;28;20025;-62
2023/01/01 02:18:30;;;;;;;305.10;175.15;;;8.60;76.00;;;;;;5042696;28;20047;-64
2023/01/01 02:21:05;;;;;;;348.17;164.18;;;8.60;76.10;;;;;;5040316;28;20484;-62
2023/01/01 02:24:05;;;;;;;199.13;127.70;;;8.60;76.30;;;;;;5040392;28;20044;-64
2023/01/01 02:26:55;;;;;;;273.08;134.98;;;8.60;76.60;;;;;;5035074;28;20087;-62
2023/01/01 02:29:42;;;;;;;476.48;148.88;;;8.50;76.40;;;;;;5054037;28;20036;-62
2023/01/01 02:32:16;;;;;;;521.90;153.35;;;8.50;76.40;;;;;;5043815;28;20029;-64
2023/01/01 02:34:51;;;;;;;468.70;149.00;;;8.50;76.20;;;;;;5048026;28;20038;-64
2023/01/01 02:37:18;;;;;;;617.15;169.02;;;8.50;76.40;;;;;;5044857;28;20025;-63
2023/01/01 02:39:50;;;;;;;411.38;167.98;;;8.40;76.30;;;;;;5040656;28;20025;-63
2023/01/01 02:42:17;;;;;;;537.42;170.48;;;8.40;76.20;;;;;;5030329;28;20048;-64
2023/01/01 02:44:47;;;;;;;348.23;166.15;;;8.40;76.90;;;;;;5044837;28;20033;-63
2023/01/01 02:47:17;;;;;;;333.98;160.00;;;8.30;76.30;;;;;;5037468;28;20052;-64
2023/01/01 02:49:52;;;;;;;255.10;150.80;;;8.30;76.40;;;;;;5036769;28;20022;-63
2023/01/01 02:52:49;;;;;;;260.27;155.63;;;8.30;76.40;;;;;;5043324;28;20049;-62
2023/01/01 02:55:51;;;;;;;242.80;149.82;;;8.20;76.50;;;;;;5038154;28;20021;-63
2023/01/01 03:01:28;;;;;;;411.92;124.88;;;8.20;76.40;;;;;;5036382;28;20060;-62
2023/01/01 03:04:10;;;;;;;366.05;133.23;;;8.20;76.30;;;;;;5054659;28;20052;-62
2023/01/01 03:06:48;;;;;;;525.50;132.63;;;8.10;76.50;;;;;;5050949;28;20033;-62
2023/01/01 03:09:40;;;;;;;444.45;135.52;;;8.10;76.40;;;;;;5041381;28;20055;-62
2023/01/01 03:12:21;;;;;;;347.73;133.60;;;8.10;76.50;;;;;;5042231;28;20025;-62
2023/01/01 03:15:00;;;;;;;330.35;128.85;;;8.00;76.30;;;;;;5047447;28;20033;-62
2023/01/01 03:17:43;;;;;;;258.75;122.07;;;8.00;76.60;;;;;;5040054;28;20018;-62
2023/01/01 03:20:20;;;;;;;186.52;117.72;;;7.90;76.70;;;;;;5043061;28;20499;-62
2023/01/01 03:22:49;;;;;;;189.98;117.60;;;7.90;76.80;;;;;;5035654;28;20025;-63
2023/01/01 03:25:28;;;;;;;209.98;122.93;;;7.90;77.00;;;;;;5043819;28;20486;-61
2023/01/01 03:28:05;;;;;;;220.23;126.75;;;7.90;77.30;;;;;;5032578;28;20030;-64
2023/01/01 03:30:34;;;;;;;285.40;125.18;;;7.80;77.10;;;;;;5038233;28;20112;-64
2023/01/01 03:33:10;;;;;;;358.70;122.18;;;7.80;77.00;;;;;;5043110;28;20038;-63
2023/01/01 03:35:49;;;;;;;317.75;117.78;;;7.80;77.00;;;;;;5038641;28;20024;-64
2023/01/01 03:38:41;;;;;;;185.93;111.32;;;7.80;77.10;;;;;;5033106;28;20025;-62
2023/01/01 03:41:32;;;;;;;190.57;119.40;;;7.80;77.10;;;;;;5058587;28;20097;-62
2023/01/01 03:44:07;;;;;;;210.27;112.20;;;7.80;77.40;;;;;;5034305;28;20080;-63
2023/01/01 03:46:35;;;;;;;297.60;112.70;;;7.70;77.00;;;;;;5037537;28;20091;-63
2023/01/01 03:49:04;;;;;;;454.52;116.32;;;7.70;77.10;;;;;;5045872;28;20136;-63
2023/01/01 03:51:39;;;;;;;407.92;114.72;;;7.70;77.10;;;;;;5034014;28;20070;-62
2023/01/01 03:54:19;;;;;;;394.83;110.25;;;7.70;77.00;;;;;;5052504;28;20040;-63
2023/01/01 03:56:51;;;;;;;313.08;100.55;;;7.70;77.10;;;;;;5046974;28;20044;-63
2023/01/01 04:00:03;;;;;;;346.23;105.28;;;7.70;76.90;;;;;;5041133;28;20021;-63
2023/01/01 04:02:37;;;;;;;347.52;103.28;;;7.70;77.00;;;;;;5033462;28;20085;-63
2023/01/01 04:05:06;;;;;;;400.67;104.88;;;7.60;76.60;;;;;;5030498;28;20700;-63
2023/01/01 04:07:32;;;;;;;375.02;104.72;;;7.60;76.60;;;;;;5034110;28;20550;-63
2023/01/01 04:10:00;;;;;;;452.90;107.40;;;7.60;76.60;;;;;;5033594;28;20508;-63
2023/01/01 04:12:28;;;;;;;444.20;103.15;;;7.60;76.70;;;;;;5031387;28;20029;-63
2023/01/01 04:14:54;;;;;;;371.35;105.22;;;7.50;76.60;;;;;;5034007;28;20034;-63
2023/01/01 04:17:20;;;;;;;572.75;112.38;;;7.50;76.70;;;;;;5033798;28;20028;-63
2023/01/01 04:19:45;;;;;;;590.05;107.00;;;7.50;76.80;;;;;;5018151;28;20039;-63
2023/01/01 04:22:11;;;;;;;474.98;102.07;;;7.50;76.70;;;;;;5037139;28;20037;-63
2023/01/01 04:24:37;;;;;;;428.50;98.55;;;7.40;76.70;;;;;;5034533;28;20052;-63
2023/01/01 04:27:03;;;;;;;385.17;87.22;;;7.40;76.70;;;;;;5036614;28;20108;-63
2023/01/01 04:29:28;;;;;;;260.25;91.28;;;7.40;76.70;;;;;;5038020;28;20029;-63
2023/01/01 04:31:54;;;;;;;238.38;88.32;;;7.30;76.70;;;;;;5031285;28;20523;-63
2023/01/01 04:34:20;;;;;;;205.80;85.20;;;7.30;76.80;;;;;;5049395;28;20472;-63
2023/01/01 04:36:45;;;;;;;282.83;88.75;;;7.20;76.80;;;;;;5043023;28;20021;-63
2023/01/01 04:39:11;;;;;;;335.50;89.10;;;7.20;76.80;;;;;;5044845;28;20060;-63
2023/01/01 04:41:37;;;;;;;277.52;95.38;;;7.20;76.80;;;;;;5042523;28;20037;-63
2023/01/01 04:44:03;;;;;;;285.88;98.30;;;7.20;76.80;;;;;;5050939;28;20048;-63
2023/01/01 04:46:29;;;;;;;200.32;97.65;;;7.10;76.80;;;;;;5045003;28;20041;-63
2023/01/01 04:48:54;;;;;;;154.82;92.55;;;7.10;76.80;;;;;;5049581;28;20029;-63
2023/01/01 04:51:21;;;;;;;155.43;90.68;;;7.10;76.90;;;;;;5053224;28;20076;-63
2023/01/01 04:53:46;;;;;;;119.30;80.13;;;7.10;77.00;;;;;;5043100;28;20094;-63
2023/01/01 04:56:18;;;;;;;126.95;83.93;;;7.10;77.00;;;;;;5055162;28;20053;-63
2023/01/01 04:58:44;;;;;;;132.13;83.30;;;7.10;77.10;;;;;;5045548;28;20143;-62
2023/01/01 05:01:18;;;;;;;124.35;81.90;;;7.10;77.10;;;;;;5036116;28;20025;-63
2023/01/01 05:03:44;;;;;;;132.93;87.32;;;7.10;77.10;;;;;;5048966;28;20017;-62
2023/01/01 05:06:11;;;;;;;183.63;88.45;;;7.00;77.00;;;;;;5038742;28;20045;-62
2023/01/01 05:08:39;;;;;;;222.20;89.45;;;7.00;76.90;;;;;;5040449;28;20052;-64
2023/01/01 05:11:07;;;;;;;191.75;82.05;;;7.00;76.80;;;;;;5032865;28;20021;-62
2023/01/01 05:13:34;;;;;;;165.13;83.82;;;7.00;76.70;;;;;;5048325;28;20129;-62
2023/01/01 05:16:04;;;;;;;190.73;81.15;;;7.00;76.70;;;;;;5040288;28;20028;-62
2023/01/01 05:18:30;;;;;;;172.02;79.68;;;7.00;76.60;;;;;;5041928;28;20092;-63
2023/01/01 05:21:04;;;;;;;129.38;80.43;;;7.00;76.60;;;;;;5042009;28;20398;-61
2023/01/01 05:23:30;;;;;;;134.02;82.30;;;7.00;76.70;;;;;;5039799;28;20083;-63
2023/01/01 05:25:56;;;;;;;156.60;76.78;;;6.90;76.60;;;;;;5038659;28;20459;-64
2023/01/01 05:28:22;;;;;;;199.20;83.82;;;6.90;76.50;;;;;;5055053;28;20067;-64
2023/01/01 05:30:52;;;;;;;156.18;82.32;;;6.90;76.40;;;;;;5035341;28;20028;-63
2023/01/01 05:33:18;;;;;;;219.68;80.47;;;6.90;76.50;;;;;;5032594;28;20022;-63
2023/01/01 05:35:44;;;;;;;230.25;80.97;;;6.80;76.50;;;;;;5045555;28;20024;-63
2023/01/01 05:38:09;;;;;;;212.02;77.70;;;6.80;76.40;;;;;;5042839;28;20034;-64
2023/01/01 05:40:38;;;;;;;140.45;78.28;;;6.80;76.40;;;;;;5042552;28;20029;-62
2023/01/01 05:43:05;;;;;;;170.27;78.07;;;6.80;76.40;;;;;;5043111;28;20033;-63
2023/01/01 05:45:31;;;;;;;137.73;77.00;;;6.70;76.40;;;;;;5034080;28;20029;-62
2023/01/01 05:47:57;;;;;;;111.90;72.15;;;6.70;76.50;;;;;;5047613;28;20029;-62
2023/01/01 05:50:22;;;;;;;125.47;73.13;;;6.70;76.60;;;;;;5044434;28;20116;-64
2023/01/01 05:52:48;;;;;;;152.48;69.70;;;6.60;76.60;;;;;;5040416;28;20092;-63
2023/01/01 05:55:14;;;;;;;144.60;61.80;;;6.60;76.60;;;;;;5053060;28;20040;-64
2023/01/01 05:57:39;;;;;;;108.95;65.55;;;6.60;76.70;;;;;;5043477;28;20026;-63
2023/01/01 06:00:06;;;;;;;97.45;65.70;;;6.60;76.70;;;;;;5039316;28;20037;-66
2023/01/01 06:02:31;;;;;;;95.47;65.03;;;6.60;76.70;;;;;;5057577;28;20036;-64
2023/01/01 06:04:57;;;;;;;91.20;62.88;;;6.60;76.70;;;;;;5070005;28;20047;-66
2023/01/01 06:07:23;;;;;;;88.32;63.05;;;6.60;76.70;;;;;;5047828;28;20536;-64
2023/01/01 06:09:48;;;;;;;89.53;60.65;;;6.50;76.70;;;;;;5052996;28;20503;-65
2023/01/01 06:12:14;;;;;;;82.82;59.17;;;6.50;76.60;;;;;;5036271;28;20033;-66
2023/01/01 06:14:40;;;;;;;73.72;50.47;;;6.50;76.60;;;;;;5044786;28;20029;-66
2023/01/01 06:17:05;;;;;;;61.10;42.25;;;6.50;76.80;;;;;;5044473;28;20033;-64
2023/01/01 06:19:31;;;;;;;54.60;39.63;;;6.50;77.10;;;;;;4960884;28;20033;-65
2023/01/01 06:21:57;;;;;;;51.47;36.72;;;6.50;77.40;;;;;;5049078;28;20064;-65
2023/01/01 06:24:22;;;;;;;49.08;35.47;;;6.50;77.50;;;;;;5039459;28;20040;-66
2023/01/01 06:26:48;;;;;;;47.97;33.55;;;6.50;77.50;;;;;;5044821;28;20049;-66
2023/01/01 06:29:13;;;;;;;49.38;33.22;;;6.60;77.70;;;;;;5039311;28;20083;-65
2023/01/01 06:31:39;;;;;;;41.10;29.05;;;6.60;77.70;;;;;;5037779;28;20038;-64
2023/01/01 06:34:05;;;;;;;38.35;26.50;;;6.60;77.70;;;;;;5045035;28;20407;-65
2023/01/01 06:36:31;;;;;;;35.95;25.15;;;6.60;77.90;;;;;;5046474;28;20041;-65
2023/01/01 06:38:58;;;;;;;40.70;27.83;;;6.60;78.20;;;;;;5040916;28;20112;-65
2023/01/01 06:41:26;;;;;;;40.83;28.95;;;6.70;78.40;;;;;;5048656;28;20089;-65
2023/01/01 06:43:53;;;;;;;50.88;31.88;;;6.70;78.20;;;;;;5044876;28;20099;-65
2023/01/01 06:46:28;;;;;;;49.83;35.55;;;6.70;77.90;;;;;;5040811;28;20052;-65
2023/01/01 06:48:54;;;;;;;;;;;6.80;77.90;;;;;;5042795;28;20032;-66
2023/01/01 06:51:22;;;;;;;51.63;34.55;;;6.80;78.20;;;;;;5038684;28;19921;-64
2023/01/01 06:53:49;;;;;;;54.00;36.95;;;6.80;77.40;;;;;;5039582;28;20026;-64
2023/01/01 06:56:15;;;;;;;57.22;40.45;;;6.80;77.50;;;;;;5045594;28;20040;-64
2023/01/01 06:58:40;;;;;;;60.25;39.60;;;6.80;77.50;;;;;;5037759;28;20026;-65
2023/01/01 07:01:13;;;;;;;59.33;38.92;;;6.80;77.50;;;;;;5040727;28;20032;-64
2023/01/01 07:03:40;;;;;;;51.88;35.97;;;6.80;77.50;;;;;;5050747;28;20025;-64
2023/01/01 07:06:06;;;;;;;55.65;35.42;;;6.80;77.60;;;;;;5039147;28;20135;-65
2023/01/01 07:08:33;;;;;;;52.55;34.30;;;6.80;77.60;;;;;;5036748;28;20037;-65
2023/01/01 07:10:58;;;;;;;53.78;34.60;;;6.80;77.70;;;;;;5042562;28;20028;-65
2023/01/01 07:13:25;;;;;;;56.75;39.08;;;6.80;77.70;;;;;;5045811;28;20025;-64
2023/01/01 07:15:52;;;;;;;58.63;38.60;;;6.80;77.70;;;;;;5040414;28;20373;-63
2023/01/01 07:18:19;;;;;;;58.90;40.08;;;6.80;77.70;;;;;;5038515;28;20026;-66
2023/01/01 07:20:57;;;;;;;55.45;38.05;;;6.80;77.70;;;;;;5053477;28;20032;-64
2023/01/01 07:23:23;;;;;;;48.60;34.60;;;6.90;77.90;;;;;;5043140;28;20048;-64
2023/01/01 07:25:50;;;;;;;53.97;34.58;;;6.90;77.70;;;;;;5052193;28;20121;-65
2023/01/01 07:28:16;;;;;;;49.50;34.33;;;6.90;77.60;;;;;;5042799;28;20020;-65
2023/01/01 07:30:42;;;;;;;49.75;33.75;;;6.90;77.50;;;;;;5030270;28;20432;-65
2023/01/01 07:33:12;;;;;;;48.25;32.35;;;6.90;77.50;;;;;;5052274;28;20056;-65
2023/01/01 07:35:39;;;;;;;42.85;29.15;;;6.90;77.50;;;;;;5040536;28;20037;-65
2023/01/01 07:38:04;;;;;;;41.35;28.63;;;6.90;77.60;;;;;;5037032;28;20017;-65
2023/01/01 07:40:30;;;;;;;40.63;28.00;;;6.90;77.60;;;;;;5048026;28;20120;-64
2023/01/01 07:42:56;;;;;;;39.42;26.88;;;6.90;77.70;;;;;;5043420;28;20033;-64
2023/01/01 07:45:21;;;;;;;35.70;26.02;;;7.00;77.70;;;;;;5041943;28;20108;-64
2023/01/01 07:47:51;;;;;;;36.63;25.30;;;7.00;77.70;;;;;;5045902;28;20551;-64
2023/01/01 07:50:18;;;;;;;37.50;26.33;;;7.00;77.70;;;;;;5036206;28;20045;-64
2023/01/01 07:52:44;;;;;;;39.67;25.88;;;7.00;77.60;;;;;;5034321;28;20080;-65
2023/01/01 07:55:15;;;;;;;36.33;25.80;;;7.10;77.60;;;;;;5047614;28;20017;-65
2023/01/01 07:57:44;;;;;;;34.47;24.25;;;7.10;77.60;;;;;;5051617;28;20021;-65
2023/01/01 08:00:13;;;;;;;33.67;24.05;;;7.10;77.60;;;;;;5042343;28;20021;-63
2023/01/01 08:02:39;;;;;;;36.28;25.63;;;7.20;77.70;;;;;;5041563;28;20152;-63
2023/01/01 08:05:05;;;;;;;38.50;28.40;;;7.20;77.50;;;;;;5048678;28;20084;-63
2023/01/01 08:07:31;;;;;;;41.83;28.98;;;7.30;77.70;;;;;;5044457;28;20041;-65
2023/01/01 08:09:57;;;;;;;52.72;32.00;;;7.30;77.80;;;;;;5057328;28;20032;-66
2023/01/01 08:12:23;;;;;;;41.70;31.27;;;7.40;78.10;;;;;;5037138;28;20484;-65
2023/01/01 08:14:50;;;;;;;46.72;30.92;;;7.40;78.20;;;;;;5042191;28;20030;-65
2023/01/01 08:17:16;;;;;;;54.22;35.72;;;7.50;78.20;;;;;;5054493;28;20025;-65
2023/01/01 08:19:43;;;;;;;57.15;36.25;;;7.50;78.20;;;;;;4954366;28;20028;-65
2023/01/01 08:22:09;;;;;;;54.28;35.25;;;7.60;78.50;;;;;;5045176;28;20036;-65
2023/01/01 08:24:35;;;;;;;47.97;35.17;;;7.70;78.50;;;;;;5041838;28;20071;-65
2023/01/01 08:27:01;;;;;;;50.40;35.00;;;7.80;78.50;;;;;;5040264;28;20033;-65
2023/01/01 08:29:26;;;;;;;48.80;35.38;;;7.90;78.60;;;;;;5043437;28;20021;-64
2023/01/01 08:31:52;;;;;;;44.78;30.88;;;8.00;78.80;;;;;;5047615;28;20048;-64
2023/01/01 08:34:17;;;;;;;43.15;29.45;;;8.10;79.00;;;;;;5041973;28;20045;-64
2023/01/01 08:36:43;;;;;;;42.55;28.08;;;8.20;79.20;;;;;;5042433;28;20033;-64
2023/01/01 08:39:09;;;;;;;38.67;25.90;;;8.40;79.40;;;;;;5047193;28;20045;-64
2023/01/01 08:41:35;;;;;;;36.88;26.98;;;8.50;79.50;;;;;;5040882;28;20037;-64
2023/01/01 08:44:01;;;;;;;35.28;24.35;;;8.60;79.60;;;;;;5039775;28;20021;-63
2023/01/01 08:46:26;;;;;;;34.67;24.35;;;8.80;79.60;;;;;;5042977;28;20037;-64
2023/01/01 08:48:52;;;;;;;30.80;21.05;;;8.90;79.70;;;;;;5039098;28;20089;-63
2023/01/01 08:51:18;;;;;;;41.08;28.08;;;9.00;79.80;;;;;;5034197;28;20084;-64
2023/01/01 08:53:44;;;;;;;33.45;22.55;;;9.10;80.50;;;;;;5052979;28;20032;-64
2023/01/01 08:56:11;;;;;;;34.90;21.42;;;9.30;79.80;;;;;;5038488;28;20021;-64
2023/01/01 08:58:38;;;;;;;26.20;18.17;;;9.40;79.80;;;;;;5038408;28;20052;-64
2023/01/01 09:01:05;;;;;;;23.15;16.80;;;9.50;79.80;;;;;;5040339;28;20021;-63
2023/01/01 09:03:31;;;;;;;59.05;35.08;;;9.60;79.70;;;;;;5038985;28;20068;-63
2023/01/01 09:05:58;;;;;;;45.97;29.52;;;9.70;79.60;;;;;;5047961;28;20064;-64
2023/01/01 09:08:24;;;;;;;114.78;71.15;;;9.90;79.70;;;;;;5041628;28;20144;-63
2023/01/01 09:10:51;;;;;;;52.03;36.58;;;10.00;79.60;;;;;;5047513;28;20025;-63
2023/01/01 09:13:19;;;;;;;90.30;54.75;;;10.10;79.40;;;;;;5045294;28;20048;-63
2023/01/01 09:15:45;;;;;;;65.45;38.90;;;10.20;79.40;;;;;;5042701;28;20021;-63
2023/01/01 09:18:11;;;;;;;49.80;31.23;;;10.30;79.40;;;;;;5042755;28;20040;-63
2023/01/01 09:20:37;;;;;;;64.72;41.55;;;10.40;79.40;;;;;;4937848;28;20116;-63
2023/01/01 09:23:04;;;;;;;41.38;26.40;;;10.50;79.40;;;;;;5040992;28;20022;-63
2023/01/01 09:25:30;;;;;;;34.30;21.75;;;10.60;79.50;;;;;;5042325;28;20039;-64
2023/01/01 09:28:01;;;;;;;27.83;18.30;;;10.70;79.60;;;;;;5045695;28;20031;-62
2023/01/01 09:30:27;;;;;;;24.13;15.82;;;10.80;79.60;;;;;;5039930;28;20033;-63
2023/01/01 09:32:53;;;;;;;23.50;15.07;;;10.90;80.20;;;;;;5037075;28;20029;-63
2023/01/01 09:35:18;;;;;;;32.80;21.77;;;11.00;79.40;;;;;;5042661;28;20198;-63
2023/01/01 09:37:44;;;;;;;35.67;22.90;;;11.10;79.30;;;;;;5042752;28;20033;-63
2023/01/01 09:40:49;;;;;;;25.65;16.98;;;11.20;79.30;;;;;;5045146;28;20028;-63
2023/01/01 09:43:18;;;;;;;32.13;17.13;;;11.30;79.60;;;;;;5039760;28;20021;-63
2023/01/01 09:46:07;;;;;;;27.42;16.13;;;11.40;79.50;;;;;;5043535;28;20033;-63
2023/01/01 09:48:38;;;;;;;25.60;13.73;;;11.50;80.00;;;;;;5034602;28;20044;-64
2023/01/01 09:51:10;;;;;;;22.13;13.50;;;11.60;79.60;;;;;;5035588;28;20044;-65
2023/01/01 09:53:45;;;;;;;20.73;14.30;;;11.80;79.70;;;;;;5037864;28;20034;-64
2023/01/01 09:56:17;;;;;;;22.02;13.00;;;12.00;79.60;;;;;;5039692;28;20033;-65
2023/01/01 09:58:43;;;;;;;43.38;23.00;;;12.10;79.30;;;;;;5043742;28;20116;-64
2023/01/01 10:01:22;;;;;;;31.77;17.65;;;12.30;79.20;;;;;;5043405;28;20468;-65
2023/01/01 10:04:00;;;;;;;60.45;28.40;;;12.40;79.30;;;;;;5042663;28;20033;-63
2023/01/01 10:06:32;;;;;;;32.92;17.92;;;12.60;79.10;;;;;;5043299;28;20049;-64
2023/01/01 10:09:25;;;;;;;22.08;13.70;;;12.80;79.00;;;;;;5047475;28;20091;-64
2023/01/01 10:12:13;;;;;;;18.08;11.30;;;12.90;78.70;;;;;;5036663;28;20063;-64
2023/01/01 10:14:43;;;;;;;16.55;9.60;;;13.10;78.50;;;;;;5046330;28;20025;-63
2023/01/01 10:17:28;;;;;;;11.27;7.38;;;13.30;78.40;;;;;;5042907;28;20025;-64
2023/01/01 10:19:57;;;;;;;11.68;7.85;;;13.40;78.10;;;;;;5045647;28;20559;-63
2023/01/01 10:22:30;;;;;;;13.02;8.02;;;13.60;77.90;;;;;;5045275;28;20067;-63
2023/01/01 10:25:02;;;;;;;10.50;7.13;;;13.80;77.60;;;;;;5046195;28;20056;-64
2023/01/01 10:27:57;;;;;;;10.55;6.53;;;13.90;77.20;;;;;;5040465;28;20049;-63
2023/01/01 10:30:24;;;;;;;9.95;6.30;;;14.00;76.90;;;;;;5027922;28;20056;-64
2023/01/01 10:32:52;;;;;;;10.93;6.15;;;14.20;76.60;;;;;;5037515;28;20034;-64
2023/01/01 10:35:21;;;;;;;8.98;5.28;;;14.40;76.30;;;;;;5044132;28;20025;-64
2023/01/01 10:37:48;;;;;;;8.45;5.07;;;14.50;76.00;;;;;;5055366;28;20025;-64
2023/01/01 10:40:25;;;;;;;9.00;5.40;;;14.60;75.80;;;;;;5050570;28;20025;-63
2023/01/01 10:42:56;;;;;;;13.90;8.25;;;14.70;75.10;;;;;;5048009;28;20029;-64
2023/01/01 10:45:36;;;;;;;14.68;9.02;;;14.90;75.20;;;;;;5043719;28;20025;-63
2023/01/01 10:48:18;;;;;;;11.88;8.15;;;15.00;75.00;;;;;;5044498;28;20101;-64
2023/01/01 10:50:51;;;;;;;12.02;7.43;;;15.10;74.40;;;;;;5039843;28;20025;-65
2023/01/01 10:53:41;;;;;;;10.65;6.65;;;15.30;74.50;;;;;;5037000;28;20044;-64
2023/01/01 10:56:14;;;;;;;13.55;7.97;;;15.40;73.90;;;;;;5039462;28;20762;-64
2023/01/01 10:58:57;;;;;;;15.85;8.23;;;15.50;74.40;;;;;;5048200;28;20032;-64
2023/01/01 11:01:31;;;;;;;12.05;7.25;;;15.60;73.60;;;;;;5033856;28;20055;-65
2023/01/01 11:04:01;;;;;;;10.75;6.90;;;15.70;73.50;;;;;;5043954;28;20076;-64
2023/01/01 11:06:34;;;;;;;11.23;6.28;;;15.80;73.80;;;;;;5040923;28;20100;-65
2023/01/01 11:09:18;;;;;;;11.10;6.55;;;15.80;73.40;;;;;;5044753;28;20025;-65
2023/01/01 11:11:46;;;;;;;8.20;5.78;;;15.90;73.10;;;;;;5036993;28;20040;-65
2023/01/01 11:14:27;;;;;;;11.93;5.60;;;16.00;73.00;;;;;;5048020;28;20071;-64
2023/01/01 11:16:54;;;;;;;9.25;5.53;;;16.10;72.30;;;;;;5036365;28;20052;-64
2023/01/01 11:19:26;;;;;;;10.90;5.78;;;16.20;72.70;;;;;;5035224;28;20064;-64
2023/01/01 11:21:52;;;;;;;7.00;4.30;;;16.30;72.50;;;;;;5038481;28;20477;-65
2023/01/01 11:24:22;;;;;;;7.70;3.65;;;16.40;71.20;;;;;;5042232;28;20032;-64
2023/01/01 11:26:48;;;;;;;5.68;3.20;;;16.50;71.00;;;;;;5045289;28;20043;-65
2023/01/01 11:29:27;;;;;;;4.13;3.13;;;16.60;70.80;;;;;;5038657;28;20097;-64
2023/01/01 11:31:54;;;;;;;7.25;2.83;;;16.70;69.70;;;;;;5037236;28;20079;-64
2023/01/01 11:34:41;;;;;;;6.75;2.95;;;16.80;70.30;;;;;;5050009;28;20052;-63
2023/01/01 11:37:13;;;;;;;4.18;2.33;;;16.90;68.20;;;;;;5040955;28;20037;-63
2023/01/01 11:39:51;;;;;;;3.65;1.90;;;17.00;68.90;;;;;;5038609;28;20033;-64
2023/01/01 11:42:20;;;;;;;4.32;2.13;;;17.10;67.50;;;;;;5046852;28;20032;-63
2023/01/01 11:44:51;;;;;;;2.50;2.08;;;17.20;68.30;;;;;;5056782;28;20075;-64
2023/01/01 11:47:28;;;;;;;3.80;2.22;;;17.20;67.70;;;;;;5042736;28;20559;-65
2023/01/01 11:50:04;;;;;;;5.10;2.40;;;17.30;67.10;;;;;;5048970;28;20072;-65
2023/01/01 11:52:44;;;;;;;3.92;1.77;;;17.40;67.20;;;;;;5042473;28;20523;-65
2023/01/01 11:55:12;;;;;;;4.43;2.13;;;17.40;67.20;;;;;;5046509;28;20021;-64
2023/01/01 11:57:43;;;;;;;4.28;2.08;;;17.50;66.60;;;;;;5050225;28;20020;-64
2023/01/01 12:00:14;;;;;;;4.25;2.03;;;17.60;67.00;;;;;;5036618;28;20054;-64
2023/01/01 12:02:47;;;;;;;4.63;2.20;;;17.60;65.90;;;;;;5052223;28;20025;-65
2023/01/01 12:05:21;;;;;;;4.60;2.20;;;17.70;65.80;;;;;;5043378;28;20028;-64
2023/01/01 12:07:47;;;;;;;3.88;2.03;;;17.70;65.20;;;;;;5036583;28;20029;-64
2023/01/01 12:10:26;;;;;;;9.27;1.98;;;17.70;65.60;;;;;;5050290;28;20044;-65
2023/01/01 12:13:05;;;;;;;4.50;2.00;;;17.80;64.40;;;;;;5044007;28;20025;-64
2023/01/01 12:15:45;;;;;;;6.40;2.10;;;17.80;64.80;;;;;;5056450;28;20029;-63
2023/01/01 12:18:40;;;;;;;6.13;2.38;;;17.80;64.20;;;;;;5039156;28;20022;-63
2023/01/01 12:21:17;;;;;;;5.93;1.92;;;17.90;63.70;;;;;;5045702;28;20041;-64
2023/01/01 12:23:43;;;;;;;3.17;1.95;;;17.90;64.20;;;;;;5042626;28;20089;-64
2023/01/01 12:26:26;;;;;;;4.75;2.20;;;18.00;64.80;;;;;;5047946;28;20079;-65
2023/01/01 12:29:10;;;;;;;4.57;1.90;;;18.00;64.10;;;;;;5034635;28;20029;-65
2023/01/01 12:31:58;;;;;;;3.50;1.70;;;18.10;63.70;;;;;;5041417;28;20090;-65
2023/01/01 12:34:31;;;;;;;6.05;1.90;;;18.20;62.00;;;;;;5054020;28;20033;-64
2023/01/01 12:37:15;;;;;;;4.25;1.75;;;18.20;62.80;;;;;;5041028;28;20026;-64
2023/01/01 12:40:05;;;;;;;7.90;2.03;;;18.30;63.90;;;;;;5043269;28;20036;-64
2023/01/01 12:42:39;;;;;;;4.63;1.90;;;18.30;62.20;;;;;;5044328;28;20021;-65
2023/01/01 12:45:28;;;;;;;3.58;1.73;;;18.40;63.40;;;;;;5044450;28;20025;-64
2023/01/01 12:48:17;;;;;;;3.53;2.00;;;18.40;61.70;;;;;;5033636;28;20037;-64
2023/01/01 12:50:55;;;;;;;5.43;1.83;;;18.50;61.10;;;;;;5042868;28;20044;-65